This demonstration page uses our WeatherBlox Daily Observations layout. Learn more.

Left ArrowRight Arrow

41.86663, -103.66717

Hourly Observations for July 19, 2018

Temp ( °F °C ) Dew Point ( °F °C ) Humidity (%) Winds ( mph kmh ) Pressure ( in mb ) Visibility ( mi km ) Precip ( " mm )
12:53 am 00:53 Clear 65 18.3 61 16.1 87 87 NE 6 9 29.91 1013 10 16.0934 N/A
1:53 am 01:53 Clear 62 16.7 61 16.1 96 96 WNW 5 7 29.91 1013 10 16.0934 N/A
2:53 am 02:53 Clear 60 15.6 60 15.6 100 100 WNW 5 7 29.9 1012 10 16.0934 N/A
3:53 am 03:53 Clear 60 15.6 60 15.6 100 100 NNW 6 9 29.89 1012 10 16.0934 N/A
4:53 am 04:53 Clear 59 15 59 15 100 100 NW 7 11 29.89 1012 10 16.0934 N/A
5:53 am 05:53 Sunny 59 15 58 14.4 96 96 WNW 6 9 29.91 1013 10 16.0934 N/A
6:53 am 06:53 Sunny 62 16.7 59 15 90 90 NW 6 9 29.9 1013 10 16.0934 N/A
7:53 am 07:53 Sunny 66 18.9 61 16.1 84 84 NNW 10 17 29.91 1013 10 16.0934 N/A
8:53 am 08:53 Sunny 72 22.2 61 16.1 68 68 W 9 15 29.91 1013 10 16.0934 N/A
9:53 am 09:53 Sunny 78 25.6 61 16.1 56 56 W 8 13 29.89 1012 10 16.0934 N/A
10:53 am 10:53 Sunny 81 27.2 64 17.8 57 57 NNW 7 11 29.89 1012 10 16.0934 N/A
11:53 am 11:53 Sunny 85 29.4 66 18.9 53 53 NW 7 11 29.88 1012 10 16.0934 N/A
12:53 pm 12:53 Sunny 90 32.2 53 11.7 28 28 WNW 7 11 29.86 1011 10 16.0934 N/A
1:53 pm 13:53 Sunny 91 32.8 57 13.9 32 32 NW 8 13 29.85 1011 10 16.0934 N/A
2:53 pm 14:53 Sunny 92 33.3 55 12.8 29 29 WNW 8 13 29.85 1011 10 16.0934 N/A
3:53 pm 15:53 Sunny 93 33.9 52 11.1 25 25 N N/A 29.83 1010 10 16.0934 N/A
4:53 pm 16:53 Sunny 94 34.4 59 15 31 31 NNE 9 15 29.82 1010 10 16.0934 N/A
5:53 pm 17:53 Sunny 91 32.8 58 14.4 33 33 NNE 8 13 29.83 1010 10 16.0934 N/A
6:53 pm 18:53 Sunny 87 30.6 61 16.1 42 42 NE 6 9 29.83 1010 10 16.0934 N/A
7:53 pm 19:53 Sunny 80 26.7 62 16.7 54 54 ENE 8 13 29.85 1011 10 16.0934 N/A
8:53 pm 20:53 Clear 74 23.3 61 16.1 64 64 ENE 9 15 29.87 1012 10 16.0934 N/A
9:53 pm 21:53 Clear 71 21.7 61 16.1 71 71 E 7 11 29.9 1013 10 16.0934 N/A
10:53 pm 22:53 Clear 69 20.6 61 16.1 76 76 S 5 7 29.9 1013 10 16.0934 N/A
11:53 pm 23:53 Clear 66 18.9 63 17.2 90 90 ENE 3 6 29.9 1013 10 16.0934 N/A

Powered by AerisWeather